createdAt,value
2024-03-10T00:01:11.824Z,95.35
2024-03-10T00:03:41.820Z,94.41
2024-03-10T00:06:10.601Z,94.03
2024-03-10T00:08:39.126Z,94.42
2024-03-10T00:11:07.889Z,93.57
2024-03-10T00:13:36.777Z,94.32
2024-03-10T00:16:05.977Z,93.26
2024-03-10T00:18:36.252Z,92.70
2024-03-10T00:21:05.095Z,93.10
2024-03-10T00:23:34.195Z,91.56
2024-03-10T00:26:07.407Z,90.15
2024-03-10T00:28:36.448Z,92.83
2024-03-10T00:31:05.337Z,93.81
2024-03-10T00:33:35.241Z,95.20
2024-03-10T00:36:03.775Z,93.57
2024-03-10T00:38:32.252Z,93.75
2024-03-10T00:41:01.248Z,92.92
2024-03-10T00:43:30.130Z,93.14
2024-03-10T00:45:58.747Z,92.45
2024-03-10T00:48:27.420Z,94.64
2024-03-10T00:50:57.293Z,94.75
2024-03-10T00:53:25.816Z,94.94
2024-03-10T00:55:54.353Z,95.03
2024-03-10T00:58:23.340Z,94.83
2024-03-10T01:00:51.820Z,95.20
2024-03-10T01:03:20.460Z,96.67
2024-03-10T01:05:48.989Z,95.79
2024-03-10T01:08:18.917Z,94.49
2024-03-10T01:10:48.248Z,93.42
2024-03-10T01:13:17.645Z,94.17
2024-03-10T01:15:46.670Z,94.59
2024-03-10T01:18:16.001Z,94.37
2024-03-10T01:20:43.706Z,94.71
2024-03-10T01:23:12.524Z,93.63
2024-03-10T01:25:43.296Z,95.48
2024-03-10T01:28:12.936Z,93.80
2024-03-10T01:30:41.396Z,93.34
2024-03-10T01:33:09.976Z,93.28
2024-03-10T01:35:41.196Z,92.15
2024-03-10T01:38:10.045Z,95.12
2024-03-10T01:40:38.605Z,95.44
2024-03-10T01:43:08.951Z,94.13
2024-03-10T01:45:37.703Z,91.96
2024-03-10T01:48:07.311Z,91.50
2024-03-10T01:50:35.875Z,93.41
2024-03-10T01:53:04.718Z,95.23
2024-03-10T01:55:33.314Z,95.87
2024-03-10T01:58:02.095Z,94.05
2024-03-10T02:00:32.872Z,94.42
2024-03-10T02:03:01.374Z,96.30
2024-03-10T02:05:30.765Z,94.81
2024-03-10T02:07:59.447Z,93.61
2024-03-10T02:10:28.268Z,93.26
2024-03-10T02:12:56.804Z,94.31
2024-03-10T02:15:25.781Z,94.52
2024-03-10T02:17:55.813Z,94.00
2024-03-10T02:20:44.851Z,94.22
2024-03-10T02:23:41.584Z,93.61
2024-03-10T02:26:33.891Z,93.41
2024-03-10T02:29:22.653Z,92.93
2024-03-10T02:32:27.554Z,94.76
2024-03-10T02:35:28.830Z,94.46
2024-03-10T02:38:33.457Z,93.72
2024-03-10T02:41:38.126Z,95.83
2024-03-10T02:44:43.880Z,93.39
2024-03-10T02:47:30.896Z,96.37
2024-03-10T02:50:18.324Z,96.06
2024-03-10T02:53:07.084Z,95.67
2024-03-10T02:55:55.056Z,97.03
2024-03-10T02:58:42.717Z,95.27
2024-03-10T03:01:31.537Z,96.38
2024-03-10T03:04:19.000Z,96.63
2024-03-10T03:07:07.905Z,96.78
2024-03-10T03:09:54.773Z,96.51
2024-03-10T03:12:43.596Z,96.80
2024-03-10T03:15:30.750Z,96.73
2024-03-10T03:18:19.581Z,97.94
2024-03-10T03:21:06.883Z,97.31
2024-03-10T03:23:54.918Z,96.11
2024-03-10T03:26:41.909Z,96.08
2024-03-10T03:29:29.277Z,95.91
2024-03-10T03:32:16.984Z,94.45
2024-03-10T03:35:06.184Z,96.50
2024-03-10T03:37:53.354Z,94.70
2024-03-10T03:40:40.916Z,97.18
2024-03-10T03:43:28.124Z,95.19
2024-03-10T03:46:15.208Z,96.16
2024-03-10T03:49:02.641Z,96.71
2024-03-10T03:51:51.215Z,96.68
2024-03-10T03:54:40.810Z,96.69
2024-03-10T03:57:27.904Z,96.49
2024-03-10T04:00:17.344Z,97.81
2024-03-10T04:03:04.966Z,96.40
2024-03-10T04:05:53.883Z,97.52
2024-03-10T04:08:42.138Z,96.63
2024-03-10T04:11:29.576Z,97.15
2024-03-10T04:14:16.904Z,96.66
2024-03-10T04:17:03.839Z,94.61
2024-03-10T04:19:50.904Z,97.44
2024-03-10T04:22:39.442Z,95.80
2024-03-10T04:25:28.214Z,97.10
2024-03-10T04:28:15.190Z,96.65
2024-03-10T04:31:02.512Z,95.88
2024-03-10T04:33:49.929Z,95.52
2024-03-10T04:36:36.846Z,96.69
2024-03-10T04:39:25.222Z,98.11
2024-03-10T04:42:13.673Z,96.08
2024-03-10T04:45:00.829Z,97.48
2024-03-10T04:47:29.656Z,96.39
2024-03-10T04:49:58.189Z,98.37
2024-03-10T04:52:27.080Z,98.19
2024-03-10T04:54:55.537Z,99.16
2024-03-10T04:57:26.171Z,98.19
2024-03-10T04:59:54.966Z,97.26
2024-03-10T05:02:23.752Z,96.94
2024-03-10T05:04:52.448Z,99.13
2024-03-10T05:07:21.204Z,98.29
2024-03-10T05:09:49.809Z,99.38
2024-03-10T05:12:18.404Z,98.94
2024-03-10T05:14:48.441Z,97.25
2024-03-10T05:17:16.913Z,97.61
2024-03-10T05:19:46.357Z,96.22
2024-03-10T05:22:15.224Z,96.34
2024-03-10T05:24:45.423Z,97.01
2024-03-10T05:27:17.125Z,98.27
2024-03-10T05:29:47.137Z,98.22
2024-03-10T05:32:15.650Z,98.19
2024-03-10T05:34:44.138Z,96.98
2024-03-10T05:37:12.606Z,96.85
2024-03-10T05:39:41.127Z,98.20
2024-03-10T05:42:09.623Z,97.86
2024-03-10T05:44:38.152Z,98.19
2024-03-10T05:47:08.458Z,100.00
2024-03-10T05:49:36.942Z,98.12
2024-03-10T05:52:06.532Z,97.98
2024-03-10T05:54:35.012Z,98.64
2024-03-10T05:57:03.879Z,97.37
2024-03-10T05:59:32.962Z,97.35
2024-03-10T06:02:01.500Z,98.79
2024-03-10T06:04:32.124Z,98.16
2024-03-10T06:07:00.767Z,97.05
2024-03-10T06:09:35.592Z,96.48
2024-03-10T06:12:04.514Z,97.79
2024-03-10T06:14:33.560Z,97.48
2024-03-10T06:17:02.391Z,98.13
2024-03-10T06:19:49.732Z,96.92
2024-03-10T06:22:35.572Z,96.65
2024-03-10T06:25:33.077Z,96.29
2024-03-10T06:28:01.528Z,98.15
2024-03-10T06:30:30.007Z,97.38
2024-03-10T06:32:59.069Z,99.20
2024-03-10T06:35:29.901Z,99.05
2024-03-10T06:37:58.725Z,97.90
2024-03-10T06:40:28.175Z,96.77
2024-03-10T06:42:56.824Z,96.39
2024-03-10T06:45:27.098Z,96.36
2024-03-10T06:47:55.903Z,98.16
2024-03-10T06:50:24.407Z,96.25
2024-03-10T06:52:54.465Z,94.90
2024-03-10T06:55:23.246Z,95.04
2024-03-10T06:57:51.980Z,96.55
2024-03-10T07:00:26.070Z,96.91
2024-03-10T07:02:54.800Z,95.25
2024-03-10T07:05:23.381Z,96.78
2024-03-10T07:07:53.776Z,95.84
2024-03-10T07:10:22.421Z,96.23
2024-03-10T07:12:51.212Z,96.35
2024-03-10T07:15:19.760Z,96.42
2024-03-10T07:17:48.339Z,96.76
2024-03-10T07:20:17.152Z,95.66
2024-03-10T07:22:45.845Z,94.43
2024-03-10T07:25:16.423Z,94.51
2024-03-10T07:27:45.594Z,95.24
2024-03-10T07:30:15.505Z,95.43
2024-03-10T07:32:44.474Z,94.47
2024-03-10T07:35:13.885Z,93.46
2024-03-10T07:37:43.692Z,93.48
2024-03-10T07:40:18.430Z,94.11
2024-03-10T07:42:49.132Z,92.55
2024-03-10T07:45:19.514Z,92.41
2024-03-10T07:47:50.665Z,93.81
2024-03-10T07:50:20.677Z,93.06
2024-03-10T07:52:49.489Z,92.54
2024-03-10T07:55:19.086Z,92.67
2024-03-10T07:57:49.338Z,92.74
2024-03-10T08:00:23.224Z,93.65
2024-03-10T08:02:53.642Z,92.05
2024-03-10T08:05:22.439Z,91.88
2024-03-10T08:07:51.472Z,90.05
2024-03-10T08:10:20.784Z,90.86
2024-03-10T08:12:51.100Z,91.09
2024-03-10T08:15:20.051Z,89.20
2024-03-10T08:17:48.787Z,89.18
2024-03-10T08:20:18.796Z,87.41
2024-03-10T08:22:48.051Z,87.72
2024-03-10T08:25:18.555Z,86.50
2024-03-10T08:27:50.957Z,86.81
2024-03-10T08:30:21.880Z,87.20
2024-03-10T08:32:50.751Z,86.63
2024-03-10T08:35:21.868Z,86.42
2024-03-10T08:37:50.950Z,86.84
2024-03-10T08:40:20.074Z,85.24
2024-03-10T08:42:48.907Z,84.85
2024-03-10T08:45:19.389Z,85.25
2024-03-10T08:47:50.703Z,84.28
2024-03-10T08:50:19.714Z,85.18
2024-03-10T08:52:49.005Z,85.59
2024-03-10T08:55:20.063Z,85.44
2024-03-10T08:57:48.680Z,86.13
2024-03-10T09:00:19.036Z,84.40
2024-03-10T09:02:50.615Z,83.21
2024-03-10T09:05:20.771Z,82.68
2024-03-10T09:07:51.035Z,83.87
2024-03-10T09:10:24.801Z,82.95
2024-03-10T09:12:53.559Z,82.59
2024-03-10T09:15:22.558Z,82.19
2024-03-10T09:17:53.539Z,82.12
2024-03-10T09:20:22.538Z,82.04
2024-03-10T09:22:53.377Z,80.31
2024-03-10T09:25:23.913Z,80.37
2024-03-10T09:27:55.173Z,80.73
2024-03-10T09:30:25.979Z,80.51
2024-03-10T09:32:58.410Z,80.28
2024-03-10T09:35:29.690Z,81.25
2024-03-10T09:38:01.994Z,80.84
2024-03-10T09:40:33.485Z,80.55
2024-03-10T09:43:06.720Z,78.87
2024-03-10T09:45:40.345Z,78.64
2024-03-10T09:48:11.256Z,79.17
2024-03-10T09:50:47.965Z,79.13
2024-03-10T09:53:18.767Z,79.94
2024-03-10T09:55:50.032Z,79.49
2024-03-10T09:58:30.080Z,78.08
2024-03-10T10:01:14.252Z,74.06
2024-03-10T10:03:46.561Z,73.28
2024-03-10T10:06:18.090Z,76.57
2024-03-10T10:08:46.998Z,73.27
2024-03-10T10:11:15.566Z,70.09
2024-03-10T10:13:44.695Z,68.85
2024-03-10T10:16:13.190Z,73.28
2024-03-10T10:18:51.399Z,72.54
2024-03-10T10:21:26.211Z,68.29
2024-03-10T10:23:55.409Z,68.58
2024-03-10T10:26:24.061Z,65.16
2024-03-10T10:29:08.734Z,60.53
2024-03-10T10:31:38.892Z,64.09
2024-03-10T10:34:16.216Z,62.17
2024-03-10T10:36:46.259Z,61.76
2024-03-10T10:39:19.117Z,62.56
2024-03-10T10:41:47.642Z,61.27
2024-03-10T10:44:16.735Z,62.06
2024-03-10T10:46:46.449Z,62.91
2024-03-10T10:49:18.145Z,61.42
2024-03-10T10:51:48.759Z,59.93
2024-03-10T10:54:17.305Z,60.20
2024-03-10T10:56:46.483Z,60.17
2024-03-10T10:59:15.779Z,61.99
2024-03-10T11:01:47.098Z,62.01
2024-03-10T11:04:26.200Z,60.59
2024-03-10T11:06:57.083Z,59.97
2024-03-10T11:09:32.315Z,60.89
2024-03-10T11:12:01.141Z,60.48
2024-03-10T11:14:30.306Z,60.69
2024-03-10T11:17:17.453Z,60.06
2024-03-10T11:19:49.023Z,61.50
2024-03-10T11:22:21.766Z,62.03
2024-03-10T11:25:18.508Z,62.52
2024-03-10T11:27:48.069Z,61.54
2024-03-10T11:30:50.587Z,62.84
2024-03-10T11:33:25.932Z,62.44
2024-03-10T11:35:58.737Z,62.86
2024-03-10T11:38:27.773Z,63.30
2024-03-10T11:41:09.949Z,63.39
2024-03-10T11:43:38.943Z,63.68
2024-03-10T11:46:22.533Z,63.46
2024-03-10T11:48:53.581Z,65.18
2024-03-10T11:51:24.572Z,65.04
2024-03-10T11:53:53.441Z,63.63
2024-03-10T11:56:22.498Z,64.38
2024-03-10T11:58:52.645Z,65.34
2024-03-10T12:01:22.436Z,64.32
2024-03-10T12:03:52.148Z,64.81
2024-03-10T12:06:20.750Z,65.79
2024-03-10T12:08:51.752Z,65.92
2024-03-10T12:11:25.984Z,65.79
2024-03-10T12:13:55.336Z,65.29
2024-03-10T12:16:24.336Z,65.77
2024-03-10T12:18:52.838Z,64.92
2024-03-10T12:21:29.011Z,64.78
2024-03-10T12:24:01.802Z,65.69
2024-03-10T12:26:33.593Z,64.75
2024-03-10T12:29:02.284Z,64.76
2024-03-10T12:31:31.377Z,65.36
2024-03-10T12:33:59.861Z,66.62
2024-03-10T12:36:28.886Z,65.88
2024-03-10T12:38:58.748Z,65.66
2024-03-10T12:41:28.095Z,65.21
2024-03-10T12:43:58.544Z,65.96
2024-03-10T12:46:27.070Z,66.88
2024-03-10T12:48:55.586Z,66.79
2024-03-10T12:51:25.490Z,68.14
2024-03-10T12:53:57.664Z,67.80
2024-03-10T12:56:28.026Z,68.29
2024-03-10T12:58:57.105Z,69.62
2024-03-10T13:01:26.178Z,70.69
2024-03-10T13:03:54.727Z,70.86
2024-03-10T13:06:23.232Z,72.20
2024-03-10T13:08:51.772Z,73.12
2024-03-10T13:11:26.102Z,73.06
2024-03-10T13:13:59.113Z,72.82
2024-03-10T13:16:29.105Z,73.39
2024-03-10T13:18:59.708Z,75.60
2024-03-10T13:21:28.315Z,75.12
2024-03-10T13:23:58.937Z,74.66
2024-03-10T13:26:27.548Z,75.43
2024-03-10T13:28:57.683Z,75.38
2024-03-10T13:31:26.186Z,74.82
2024-03-10T13:33:54.945Z,73.91
2024-03-10T13:36:23.694Z,74.85
2024-03-10T13:38:52.215Z,74.95
2024-03-10T13:41:22.419Z,76.44
2024-03-10T13:43:50.929Z,79.84
2024-03-10T13:46:20.807Z,83.61
2024-03-10T13:48:50.457Z,84.13
2024-03-10T13:51:19.801Z,84.62
2024-03-10T13:53:48.318Z,89.87
2024-03-10T13:56:17.948Z,88.91
2024-03-10T13:58:47.490Z,92.54
2024-03-10T14:01:16.512Z,92.36
2024-03-10T14:03:46.553Z,92.40
2024-03-10T14:06:15.140Z,94.68
2024-03-10T14:08:44.190Z,94.65
2024-03-10T14:11:14.778Z,94.33
2024-03-10T14:13:43.371Z,98.91
2024-03-10T14:16:12.841Z,98.51
2024-03-10T14:18:41.296Z,97.27
2024-03-10T14:21:11.367Z,97.02
2024-03-10T14:23:40.600Z,97.17
2024-03-10T14:26:09.515Z,99.78
2024-03-10T14:28:39.213Z,100.00
2024-03-10T14:31:08.675Z,100.00
2024-03-10T14:33:39.551Z,98.71
2024-03-10T14:36:10.607Z,98.41
2024-03-10T14:38:39.976Z,99.74
2024-03-10T14:41:08.972Z,100.00
2024-03-10T14:43:37.740Z,100.00
2024-03-10T14:46:06.833Z,99.85
2024-03-10T14:48:35.655Z,99.56
2024-03-10T14:51:04.547Z,100.00
2024-03-10T14:53:34.443Z,100.00
2024-03-10T14:56:03.232Z,100.00
2024-03-10T14:58:31.707Z,100.00
2024-03-10T15:01:03.722Z,100.00
2024-03-10T15:03:37.554Z,100.00
2024-03-10T15:06:06.956Z,100.00
2024-03-10T15:08:38.349Z,100.00
2024-03-10T15:11:10.263Z,100.00
2024-03-10T15:13:38.851Z,100.00
2024-03-10T15:16:08.772Z,100.00
2024-03-10T15:18:39.231Z,100.00
2024-03-10T15:21:07.859Z,100.00
2024-03-10T15:23:37.758Z,100.00
2024-03-10T15:26:06.851Z,100.00
2024-03-10T15:28:38.394Z,100.00
2024-03-10T15:31:07.407Z,100.00
2024-03-10T15:33:36.472Z,100.00
2024-03-10T15:36:05.757Z,100.00
2024-03-10T15:38:34.268Z,100.00
2024-03-10T15:41:05.709Z,100.00
2024-03-10T15:43:35.917Z,100.00
2024-03-10T15:46:04.556Z,100.00
2024-03-10T15:48:33.925Z,100.00
2024-03-10T15:51:02.712Z,100.00
2024-03-10T15:53:31.188Z,100.00
2024-03-10T15:55:59.700Z,100.00
2024-03-10T15:58:29.559Z,100.00
2024-03-10T16:00:58.661Z,100.00
2024-03-10T16:03:36.798Z,100.00
2024-03-10T16:06:08.057Z,100.00
2024-03-10T16:08:37.555Z,100.00
2024-03-10T16:11:06.656Z,100.00
2024-03-10T16:13:45.005Z,100.00
2024-03-10T16:16:14.400Z,100.00
2024-03-10T16:18:43.095Z,100.00
2024-03-10T16:21:18.326Z,100.00
2024-03-10T16:23:46.854Z,100.00
2024-03-10T16:26:19.486Z,100.00
2024-03-10T16:28:49.607Z,100.00
2024-03-10T16:31:19.301Z,100.00
2024-03-10T16:33:48.039Z,100.00
2024-03-10T16:36:16.542Z,100.00
2024-03-10T16:38:45.606Z,100.00
2024-03-10T16:41:14.614Z,100.00
2024-03-10T16:43:43.090Z,100.00
2024-03-10T16:46:13.222Z,100.00
2024-03-10T16:48:42.266Z,100.00
2024-03-10T16:51:11.280Z,100.00
2024-03-10T16:53:40.295Z,100.00
2024-03-10T16:56:10.824Z,100.00
2024-03-10T16:58:42.359Z,100.00
2024-03-10T17:01:12.291Z,100.00
2024-03-10T17:03:42.038Z,100.00
2024-03-10T17:06:11.351Z,100.00
2024-03-10T17:08:41.258Z,100.00
2024-03-10T17:11:10.394Z,100.00
2024-03-10T17:13:39.137Z,100.00
2024-03-10T17:16:08.862Z,100.00
2024-03-10T17:18:38.763Z,100.00
2024-03-10T17:21:07.661Z,100.00
2024-03-10T17:23:36.597Z,100.00
2024-03-10T17:26:05.591Z,100.00
2024-03-10T17:28:35.008Z,100.00
2024-03-10T17:31:03.827Z,100.00
2024-03-10T17:33:32.392Z,100.00
2024-03-10T17:36:02.544Z,100.00
2024-03-10T17:38:31.059Z,100.00
2024-03-10T17:40:59.817Z,100.00
2024-03-10T17:43:29.503Z,100.00
2024-03-10T17:45:58.007Z,100.00
2024-03-10T17:48:26.832Z,100.00
2024-03-10T17:50:55.293Z,100.00
2024-03-10T17:53:25.375Z,100.00
2024-03-10T17:55:53.856Z,100.00
2024-03-10T17:58:22.613Z,100.00
2024-03-10T18:00:51.339Z,100.00
2024-03-10T18:03:20.137Z,100.00
2024-03-10T18:05:49.657Z,100.00
2024-03-10T18:08:18.291Z,100.00
2024-03-10T18:10:49.288Z,100.00
2024-03-10T18:13:18.595Z,100.00
2024-03-10T18:15:50.108Z,100.00
2024-03-10T18:18:18.944Z,100.00
2024-03-10T18:20:47.612Z,100.00
2024-03-10T18:23:19.167Z,100.00
2024-03-10T18:25:49.255Z,100.00
2024-03-10T18:28:18.167Z,100.00
2024-03-10T18:30:46.978Z,100.00
2024-03-10T18:33:16.741Z,100.00
2024-03-10T18:35:47.264Z,100.00
2024-03-10T18:38:17.566Z,100.00
2024-03-10T18:40:52.487Z,100.00
2024-03-10T18:43:21.266Z,100.00
2024-03-10T18:45:51.171Z,100.00
2024-03-10T18:48:20.276Z,100.00
2024-03-10T18:50:54.558Z,100.00
2024-03-10T18:53:31.480Z,100.00
2024-03-10T18:56:05.065Z,100.00
2024-03-10T18:58:36.459Z,100.00
2024-03-10T19:01:06.574Z,100.00
2024-03-10T19:03:35.236Z,100.00
2024-03-10T19:06:03.948Z,100.00
2024-03-10T19:08:32.441Z,100.00
2024-03-10T19:11:03.423Z,100.00
2024-03-10T19:13:32.037Z,100.00
2024-03-10T19:16:01.324Z,100.00
2024-03-10T19:18:29.819Z,100.00
2024-03-10T19:20:58.922Z,100.00
2024-03-10T19:23:27.856Z,100.00
2024-03-10T19:25:58.454Z,100.00
2024-03-10T19:28:28.678Z,100.00
2024-03-10T19:30:59.028Z,100.00
2024-03-10T19:33:27.496Z,100.00
2024-03-10T19:35:56.510Z,100.00
2024-03-10T19:38:25.237Z,100.00
2024-03-10T19:40:54.787Z,100.00
2024-03-10T19:43:23.926Z,100.00
2024-03-10T19:45:53.941Z,100.00
2024-03-10T19:48:25.285Z,100.00
2024-03-10T19:50:54.826Z,100.00
2024-03-10T19:53:24.908Z,100.00
2024-03-10T19:55:55.967Z,100.00
2024-03-10T19:58:25.170Z,100.00
2024-03-10T20:00:55.114Z,100.00
2024-03-10T20:03:23.925Z,100.00
2024-03-10T20:05:52.577Z,100.00
2024-03-10T20:08:24.092Z,100.00
2024-03-10T20:10:53.383Z,100.00
2024-03-10T20:13:22.179Z,100.00
2024-03-10T20:15:50.602Z,100.00
2024-03-10T20:18:20.477Z,100.00
2024-03-10T20:20:48.912Z,100.00
2024-03-10T20:23:17.798Z,100.00
2024-03-10T20:25:46.815Z,100.00
2024-03-10T20:28:15.321Z,100.00
2024-03-10T20:30:44.071Z,100.00
2024-03-10T20:33:12.780Z,100.00
2024-03-10T20:35:42.776Z,100.00
2024-03-10T20:38:12.336Z,100.00
2024-03-10T20:40:40.790Z,100.00
2024-03-10T20:43:09.421Z,100.00
2024-03-10T20:45:38.187Z,100.00
2024-03-10T20:48:08.457Z,100.00
2024-03-10T20:50:37.467Z,100.00
2024-03-10T20:53:08.191Z,100.00
2024-03-10T20:55:37.081Z,100.00
2024-03-10T20:58:07.217Z,100.00
2024-03-10T21:00:37.086Z,100.00
2024-03-10T21:03:06.634Z,100.00
2024-03-10T21:05:36.090Z,100.00
2024-03-10T21:08:06.744Z,100.00
2024-03-10T21:10:35.572Z,100.00
2024-03-10T21:13:06.195Z,100.00
2024-03-10T21:15:36.116Z,100.00
2024-03-10T21:18:05.941Z,100.00
2024-03-10T21:20:36.272Z,100.00
2024-03-10T21:23:06.891Z,100.00
2024-03-10T21:25:36.155Z,100.00
2024-03-10T21:28:09.971Z,100.00
2024-03-10T21:30:38.818Z,100.00
2024-03-10T21:33:08.946Z,100.00
2024-03-10T21:35:39.731Z,100.00
2024-03-10T21:38:10.256Z,100.00
2024-03-10T21:40:39.707Z,100.00
2024-03-10T21:43:09.785Z,100.00
2024-03-10T21:45:39.742Z,100.00
2024-03-10T21:48:10.153Z,100.00
2024-03-10T21:50:39.675Z,100.00
2024-03-10T21:53:10.282Z,100.00
2024-03-10T21:55:39.145Z,100.00
2024-03-10T21:58:07.663Z,100.00
2024-03-10T22:00:36.107Z,100.00
2024-03-10T22:03:05.014Z,100.00
2024-03-10T22:05:33.679Z,100.00
2024-03-10T22:08:02.195Z,100.00
2024-03-10T22:10:33.254Z,100.00
2024-03-10T22:13:01.693Z,100.00
2024-03-10T22:15:30.119Z,100.00
2024-03-10T22:17:59.755Z,100.00
2024-03-10T22:20:30.057Z,100.00
2024-03-10T22:22:59.250Z,100.00
2024-03-10T22:25:28.994Z,100.00
2024-03-10T22:28:00.014Z,100.00
2024-03-10T22:30:31.364Z,100.00
2024-03-10T22:33:00.799Z,100.00
2024-03-10T22:35:29.719Z,100.00
2024-03-10T22:37:59.327Z,100.00
2024-03-10T22:40:29.198Z,100.00
2024-03-10T22:43:00.149Z,100.00
2024-03-10T22:45:32.605Z,100.00
2024-03-10T22:48:05.592Z,100.00
2024-03-10T22:50:36.437Z,100.00
2024-03-10T22:53:07.411Z,100.00
2024-03-10T22:55:36.824Z,100.00
2024-03-10T22:58:06.929Z,100.00
2024-03-10T23:00:36.740Z,100.00
2024-03-10T23:03:08.442Z,100.00
2024-03-10T23:05:37.774Z,100.00
2024-03-10T23:08:10.522Z,100.00
2024-03-10T23:10:41.073Z,100.00
2024-03-10T23:13:12.439Z,100.00
2024-03-10T23:15:42.685Z,100.00
2024-03-10T23:18:12.792Z,100.00
2024-03-10T23:20:42.276Z,100.00
2024-03-10T23:23:10.982Z,100.00
2024-03-10T23:25:39.619Z,100.00
2024-03-10T23:28:09.244Z,100.00
2024-03-10T23:30:39.492Z,100.00
2024-03-10T23:33:08.485Z,100.00
2024-03-10T23:35:37.399Z,100.00
2024-03-10T23:38:07.059Z,100.00
2024-03-10T23:40:36.142Z,100.00
2024-03-10T23:43:04.684Z,100.00
2024-03-10T23:45:34.533Z,100.00
2024-03-10T23:48:05.822Z,100.00
2024-03-10T23:50:35.547Z,100.00
2024-03-10T23:53:05.168Z,100.00
2024-03-10T23:55:40.442Z,100.00
2024-03-10T23:58:12.986Z,100.00
